• Join FlightAware (Why Join?)
  • Login
  • US Flag 
10:58AM EST


 

Airport Tracker/Info


-or-


 

Live Flight TrackerFlight Track Log ✈ SWA864 ✈ 08-Jun-2013 ✈ KBUR - KOAK

Flight Track Log - Related Links

Times and Time Zones

All times are in EDT time to prevent confusion due to time zone crossing. See the SWA864 flight status page for this flight to view local times or setup timezone preferences in your user account.

Time Position Orientation Groundspeed Altitude Reporting Facility
EDT Latitude Longitude Course Direction KTS MPH feet Rate Location/Type
07:43PM 34.1656 -118.4450 277° West 230 265 5,400  Level Los Angeles Center
07:44PM 34.2536 -118.5006 332° Northwest 295 339 8,700 3,480 Climbing Los Angeles Center
07:45PM 34.3317 -118.5517 332° Northwest 316 364 12,600 2,880 Climbing Los Angeles Center
07:46PM 34.4114 -118.6042 331° Northwest 325 374 14,700 2,460 Climbing Los Angeles Center
07:47PM 34.5910 -118.7455 338° Northwest  Level FlightAware Approximate
07:47PM 34.4944 -118.6569 332° Northwest 338 389 17,700  Level Los Angeles Center
07:48PM 34.5833 -118.7172 331° Northwest 366 421 20,800 2,340 Climbing Los Angeles Center
07:49PM 34.6800 -118.7814 331° Northwest 403 464 22,600 1,980 Climbing Los Angeles Center
07:50PM 34.7847 -118.8514 331° Northwest 424 488 24,900 2,460 Climbing Los Angeles Center
07:51PM 34.9042 -118.9619 323° Northwest 459 528 27,700 2,340 Climbing Los Angeles Center
07:52PM 35.0061 -119.0603 322° Northwest 469 540 29,800 2,100 Climbing Los Angeles Center
07:53PM 35.1100 -119.1617 321° Northwest 478 550 32,100 2,040 Climbing Los Angeles Center
07:54PM 35.2142 -119.2639 321° Northwest 482 555 34,100 1,800 Climbing Los Angeles Center
07:55PM 35.3178 -119.3631 322° Northwest 478 550 35,900 900 Climbing Los Angeles Center
07:56PM 35.4222 -119.4647 322° Northwest 480 552 36,000  Climbing Los Angeles Center
07:57PM 35.5433 -119.5853 321° Northwest 473 544 36,000  Level Los Angeles Center
07:58PM 35.6192 -119.6628 320° Northwest 470 541 36,000  Level Oakland Center
07:59PM 35.7194 -119.7622 321° Northwest 468 539 36,000  Level Oakland Center
07:59PM 35.7403 -119.7836 320° Northwest 463 533 36,000 -120 Level Los Angeles Center
08:00PM 35.8400 -119.8853 320° Northwest 467 537 35,900 -60 Descending Los Angeles Center
08:01PM 35.9189 -119.9636 321° Northwest 468 539 35,900  Level Oakland Center
08:02PM 36.0178 -120.0631 321° Northwest 463 533 35,900  Level Oakland Center
08:03PM 36.1169 -120.1647 320° Northwest 465 535 35,900  Level Oakland Center
08:04PM 36.2161 -120.2644 321° Northwest 462 532 35,900 -360 Level Oakland Center
08:05PM 36.3156 -120.3678 320° Northwest 467 537 35,200 -1,800 Descending Oakland Center
08:06PM 36.4153 -120.4694 321° Northwest 466 536 32,300 -2,520 Descending Oakland Center
08:07PM 36.5314 -120.5933 319° Northwest 462 532 30,100 -2,100 Descending Oakland Center
08:08PM 36.6242 -120.6833 322° Northwest 431 496 28,100 -2,040 Descending Oakland Center
08:09PM 36.7133 -120.7764 320° Northwest 422 486 26,000 -2,040 Descending Oakland Center
08:10PM 36.7983 -120.8700 319° Northwest 408 470 24,000 -1,920 Descending Oakland Center
08:11PM 36.8769 -120.9619 317° Northwest 402 463 22,200 -1,980 Descending Oakland Center
08:12PM 36.9544 -121.0517 317° Northwest 383 441 20,000 -2,340 Descending Oakland Center
08:13PM 37.0336 -121.1439 317° Northwest 387 445 17,500 -2,220 Descending Oakland Center
08:14PM 37.1111 -121.2303 318° Northwest 372 428 15,500 -2,280 Descending Oakland Center
08:15PM 37.1844 -121.3158 317° Northwest 361 415 12,900 -2,400 Descending Oakland Center
08:16PM 37.2583 -121.4008 318° Northwest 358 412 10,700 -1,440 Descending Oakland Center
08:17PM 37.3269 -121.4819 317° Northwest 342 394 10,000 -1,200 Descending Oakland Center
08:18PM 37.3964 -121.5639 317° Northwest 303 349 8,400 -1,620 Descending Oakland Center
08:19PM 37.4547 -121.6328 317° Northwest 290 334 6,800 -1,200 Descending Oakland Center
08:20PM 37.5000 -121.7333 300° West 282 325 5,900 -420 Descending Northern Cal TRACON
08:21PM 37.5333 -121.8167 297° West 283 326 6,000 -720 Climbing Northern Cal TRACON
08:22PM 37.5500 -121.9167 282° West 278 320 4,500 -1,140 Descending Northern Cal TRACON
08:23PM 37.5833 -122.0000 297° West 254 292 3,800 -900 Descending Northern Cal TRACON
08:24PM 37.6167 -122.0667 302° West 228 262 2,800 -1,080 Descending Northern Cal TRACON
08:25PM 37.6333 -122.1167 293° West 178 205 1,700 -900 Descending Northern Cal TRACON
08:26PM 37.6667 -122.1667 310° West 138 159 1,100 -720 Descending Northern Cal TRACON
08:27PM 37.6833 -122.2000 302° West 129 148 400 -720 Descending Northern Cal TRACON
08:30PM 37.7167 -122.2167 270° West  Level FlightAware Approximate